Portada
METAR-TAF:

METAR-TAF

Aeropuertos :

Aeropuerto Internacional Mitiga

Trípoli, Libia

latitud: 32-54N, longitud: 13-17E, altitud: 11 m

Observación

El informe se hizo hace 45 minutos, a las 11:50 UTC
Viento 6 kt del sur
Temperatura 23°C
Humedad 44%
Presión 1021 hPa
Visibilidad: 8000 m
Nubes dispersas a una altura de 2500 ft

METAR: HLLM 151150Z 17006KT 8000 SCT025 23/10 Q1021

Hora: 14:35 (12:35 UTC)

Pronóstico

El informe se hizo hace 25 horas y 35 minutos, a las 11:00 UTC
Pronóstico válido del 14 a las 12 UTC al 15 a las 12 UTC
Viento 10 kt del sureste
Visibilidad: 8000 m
Nubes dispersas a una altura de 2500 ft

TAF: HLLM 141100Z 1412/1512 04010KT 9999 SCT025 BECMG1500/1502 VRB02KT BECMG1509/1511 14010KT 8000 NSC

Observaciones y pronósticos meteorológicos de más de 4000 aeropuertos (mensajes METAR y TAF).

Los puntos amarillos y rojos representan las estaciones disponibles.

Ponga el ratón en el punto deseado para ver el nombre de la estación.

Haga clic para ver las observaciones y los pronósticos meteorológicos.

Para cambiar el mapa : haga clic en los botones verdes con una cruz de color negro para hacer un zoom, en el botón verde con un guión para alejar o en las flechas verdes para mapas adyacentes.


METAR-TAF: